• pl
  • eng

Awiacja
WIADOMOŚCI
ostatnia aktualizacja: 26.09.2019 09:57
Uprzejmie informujemy, że od dnia 2.09.2019 jest dostępna w formie testowej prognoza GAFOR. Prosimy o przesyłanie na adres gafor@imgw.pl uwag i sugestii, które przyczynią się do rozwoju produktu.
Kliknij na pogrubioną czerwoną nazwę, aby odkodować depeszę. 07:01 24.10.2019
  • WIND
  • SIGNIFICANT EURO
  • SIGNIFICANT
  • SIGMET
  • AIRMET
  • TAF FC
  • TAF FT
  • METAR GG30
  • METAR GG00


METAR EPBY 240500Z 12007KT 0500 R26/1500U FG VV002 11/11 Q1015 =

METAR EPGD 240500Z 15007KT 0600 R29/1000D FG VV001 09/09 Q1016 =

METAR EPKK 240500Z 04005KT 0100 R25/0375N FG VV001 09/09 Q1015 =

METAR EPKT 240500Z VRB02KT 1000 0100N R27/2000N BCFG BR NSC 06/06
Q1015 =

METAR EPLB 240500Z 12007KT 0200 FG VV001 11/11 Q1017 =

METAR EPLL 240500Z 10006KT 070V150 0250 R25/0800N FG VV001 11/11
Q1015 =

METAR EPMO 240500Z 10006KT 0400 R08/0400N FG OVC000 10/10 Q1017 =

METAR EPPO 240500Z 10010KT 0600 R28/1900 FG VV002 12/12 Q1013 =

METAR EPRA 240500Z NIL=

METAR EPRZ 240500Z 08006KT 3500 MIFG BR NSC 08/08 Q1017 =

METAR EPSC 240500Z 13010KT 2500 -DZ BR OVC002 11/11 Q1013 =

METAR EPSY 240500Z NIL=

METAR EPWA 240500Z 12008KT 080V150 1400 1100W R33/1500N BR BKN002
12/12 Q1017 TEMPO 0800 FG OVC001=

METAR EPWR 240500Z 14010KT 0300 R29/1100N FG VV001 11/11 Q1013 =

METAR EPZG 240500Z 08004KT 1900 -DZ BR OVC004 13/13 Q1013 =
Awiacja.imgw.pl jest pogodowym serwisem informacyjnym
Instytutu Meteorologii i Gospodarki Wodnej Państwowego Instytutu Badawczego.
Copyright IMGW PIB 2009-2019© Wszelkie prawa zastrzeżone.